sensor_id;sensor_type;location;lat;lon;timestamp;pressure;altitude;pressure_sealevel;temperature;humidity
26859;BME280;14429;48.346;16.338;2023-01-10T00:02:10;98861.63;;;12.19;54.50
26859;BME280;14429;48.346;16.338;2023-01-10T00:04:37;98867.28;;;12.26;52.81
26859;BME280;14429;48.346;16.338;2023-01-10T00:07:02;98868.19;;;12.45;53.03
26859;BME280;14429;48.346;16.338;2023-01-10T00:09:28;98868.81;;;12.28;52.40
26859;BME280;14429;48.346;16.338;2023-01-10T00:11:53;98861.16;;;12.44;53.22
26859;BME280;14429;48.346;16.338;2023-01-10T00:14:19;98860.31;;;12.53;52.58
26859;BME280;14429;48.346;16.338;2023-01-10T00:16:44;98871.84;;;12.44;53.15
26859;BME280;14429;48.346;16.338;2023-01-10T00:19:10;98865.25;;;12.09;53.31
26859;BME280;14429;48.346;16.338;2023-01-10T00:21:37;98866.59;;;11.94;55.58
26859;BME280;14429;48.346;16.338;2023-01-10T00:24:03;98879.66;;;11.88;53.94
26859;BME280;14429;48.346;16.338;2023-01-10T00:26:28;98878.66;;;12.18;54.85
26859;BME280;14429;48.346;16.338;2023-01-10T00:28:54;98878.44;;;11.52;54.41
26859;BME280;14429;48.346;16.338;2023-01-10T00:31:19;98869.75;;;12.09;54.22
26859;BME280;14429;48.346;16.338;2023-01-10T00:33:45;98878.25;;;12.23;53.68
26859;BME280;14429;48.346;16.338;2023-01-10T00:36:10;98882.19;;;12.28;53.60
26859;BME280;14429;48.346;16.338;2023-01-10T00:38:37;98883.28;;;12.16;52.00
26859;BME280;14429;48.346;16.338;2023-01-10T00:41:03;98891.19;;;12.27;53.20
26859;BME280;14429;48.346;16.338;2023-01-10T00:43:29;98889.81;;;12.33;53.42
26859;BME280;14429;48.346;16.338;2023-01-10T00:45:54;98885.69;;;11.90;53.77
26859;BME280;14429;48.346;16.338;2023-01-10T00:48:19;98905.78;;;11.64;55.21
26859;BME280;14429;48.346;16.338;2023-01-10T00:50:45;98898.13;;;12.00;55.57
26859;BME280;14429;48.346;16.338;2023-01-10T00:53:10;98902.69;;;12.18;54.35
26859;BME280;14429;48.346;16.338;2023-01-10T00:55:37;98912.91;;;11.84;54.23
26859;BME280;14429;48.346;16.338;2023-01-10T00:58:03;98908.56;;;12.12;53.95
26859;BME280;14429;48.346;16.338;2023-01-10T01:00:28;98924.41;;;11.95;53.56
26859;BME280;14429;48.346;16.338;2023-01-10T01:02:54;98929.84;;;11.94;52.77
26859;BME280;14429;48.346;16.338;2023-01-10T01:05:20;98922.31;;;12.38;52.92
26859;BME280;14429;48.346;16.338;2023-01-10T01:07:46;98937.88;;;11.94;52.96
26859;BME280;14429;48.346;16.338;2023-01-10T01:10:12;98946.97;;;12.12;53.78
26859;BME280;14429;48.346;16.338;2023-01-10T01:12:39;98938.53;;;12.16;54.33
26859;BME280;14429;48.346;16.338;2023-01-10T01:15:05;98951.28;;;12.03;54.96
26859;BME280;14429;48.346;16.338;2023-01-10T01:17:31;98962.16;;;12.11;55.15
26859;BME280;14429;48.346;16.338;2023-01-10T01:19:56;98959.00;;;12.06;54.15
26859;BME280;14429;48.346;16.338;2023-01-10T01:22:21;98969.97;;;11.83;52.46
26859;BME280;14429;48.346;16.338;2023-01-10T01:24:47;98968.09;;;11.94;54.28
26859;BME280;14429;48.346;16.338;2023-01-10T01:27:12;98967.63;;;12.10;53.39
26859;BME280;14429;48.346;16.338;2023-01-10T01:29:39;98967.78;;;12.17;52.81
26859;BME280;14429;48.346;16.338;2023-01-10T01:32:05;98968.88;;;12.35;52.83
26859;BME280;14429;48.346;16.338;2023-01-10T01:34:30;98969.66;;;11.97;52.85
26859;BME280;14429;48.346;16.338;2023-01-10T01:36:55;98974.94;;;12.08;53.76
26859;BME280;14429;48.346;16.338;2023-01-10T01:39:21;98973.50;;;12.04;54.60
26859;BME280;14429;48.346;16.338;2023-01-10T01:41:46;98976.25;;;11.93;55.04
26859;BME280;14429;48.346;16.338;2023-01-10T01:44:14;98980.56;;;11.85;55.12
26859;BME280;14429;48.346;16.338;2023-01-10T01:46:42;98979.09;;;12.01;54.84
26859;BME280;14429;48.346;16.338;2023-01-10T01:49:13;98974.59;;;12.01;53.75
26859;BME280;14429;48.346;16.338;2023-01-10T01:51:39;98992.88;;;11.96;53.68
26859;BME280;14429;48.346;16.338;2023-01-10T01:54:08;98989.16;;;11.88;53.43
26859;BME280;14429;48.346;16.338;2023-01-10T01:56:37;98993.00;;;12.24;53.21
26859;BME280;14429;48.346;16.338;2023-01-10T01:59:07;99000.25;;;12.33;52.62
26859;BME280;14429;48.346;16.338;2023-01-10T02:01:37;99000.59;;;12.19;52.89
26859;BME280;14429;48.346;16.338;2023-01-10T02:04:09;99000.34;;;12.22;53.43
26859;BME280;14429;48.346;16.338;2023-01-10T02:06:36;99002.06;;;12.03;54.17
26859;BME280;14429;48.346;16.338;2023-01-10T02:09:07;99013.75;;;11.71;53.42
26859;BME280;14429;48.346;16.338;2023-01-10T02:11:34;99013.91;;;11.90;55.01
26859;BME280;14429;48.346;16.338;2023-01-10T02:14:00;99016.28;;;12.13;54.04
26859;BME280;14429;48.346;16.338;2023-01-10T02:16:29;99012.97;;;12.20;53.49
26859;BME280;14429;48.346;16.338;2023-01-10T02:18:55;99013.44;;;12.25;53.10
26859;BME280;14429;48.346;16.338;2023-01-10T02:21:35;99017.00;;;12.35;52.66
26859;BME280;14429;48.346;16.338;2023-01-10T02:24:30;99020.41;;;12.46;52.18
26859;BME280;14429;48.346;16.338;2023-01-10T02:27:19;99013.06;;;12.39;52.16
26859;BME280;14429;48.346;16.338;2023-01-10T02:32:47;99028.50;;;11.86;54.80
26859;BME280;14429;48.346;16.338;2023-01-10T02:35:33;99034.88;;;11.74;54.90
26859;BME280;14429;48.346;16.338;2023-01-10T02:38:11;99034.88;;;11.74;54.56
26859;BME280;14429;48.346;16.338;2023-01-10T02:40:46;99031.16;;;11.86;53.59
26859;BME280;14429;48.346;16.338;2023-01-10T02:43:15;99031.69;;;12.00;53.43
26859;BME280;14429;48.346;16.338;2023-01-10T02:45:46;99032.09;;;11.45;53.33
26859;BME280;14429;48.346;16.338;2023-01-10T02:48:15;99043.59;;;11.76;54.20
26859;BME280;14429;48.346;16.338;2023-01-10T02:50:53;99034.28;;;11.71;52.95
26859;BME280;14429;48.346;16.338;2023-01-10T02:53:23;99048.28;;;11.63;52.87
26859;BME280;14429;48.346;16.338;2023-01-10T02:56:10;99050.66;;;11.77;53.60
26859;BME280;14429;48.346;16.338;2023-01-10T02:58:52;99058.44;;;11.69;55.20
26859;BME280;14429;48.346;16.338;2023-01-10T03:01:27;99056.94;;;11.45;55.51
26859;BME280;14429;48.346;16.338;2023-01-10T03:04:03;99071.88;;;11.37;55.93
26859;BME280;14429;48.346;16.338;2023-01-10T03:06:39;99071.88;;;11.48;56.12
26859;BME280;14429;48.346;16.338;2023-01-10T03:09:14;99076.97;;;11.51;55.37
26859;BME280;14429;48.346;16.338;2023-01-10T03:11:42;99085.41;;;11.03;55.94
26859;BME280;14429;48.346;16.338;2023-01-10T03:14:16;99075.78;;;11.44;55.12
26859;BME280;14429;48.346;16.338;2023-01-10T03:16:46;99087.16;;;11.46;54.18
26859;BME280;14429;48.346;16.338;2023-01-10T03:19:18;99078.44;;;11.33;54.89
26859;BME280;14429;48.346;16.338;2023-01-10T03:21:45;99079.88;;;11.48;54.85
26859;BME280;14429;48.346;16.338;2023-01-10T03:24:16;99089.38;;;11.72;54.89
26859;BME280;14429;48.346;16.338;2023-01-10T03:26:46;99074.72;;;11.66;54.92
26859;BME280;14429;48.346;16.338;2023-01-10T03:29:15;99094.94;;;11.38;56.24
26859;BME280;14429;48.346;16.338;2023-01-10T03:31:46;99089.81;;;11.35;56.13
26859;BME280;14429;48.346;16.338;2023-01-10T03:34:14;99099.28;;;11.28;56.44
26859;BME280;14429;48.346;16.338;2023-01-10T03:36:44;99088.28;;;11.74;54.83
26859;BME280;14429;48.346;16.338;2023-01-10T03:39:17;99108.44;;;11.67;54.74
26859;BME280;14429;48.346;16.338;2023-01-10T03:41:49;99116.88;;;11.30;55.40
26859;BME280;14429;48.346;16.338;2023-01-10T03:44:19;99114.09;;;11.43;55.08
26859;BME280;14429;48.346;16.338;2023-01-10T03:46:51;99120.88;;;11.36;55.14
26859;BME280;14429;48.346;16.338;2023-01-10T03:49:21;99130.75;;;11.03;56.93
26859;BME280;14429;48.346;16.338;2023-01-10T03:51:48;99126.03;;;11.06;57.48
26859;BME280;14429;48.346;16.338;2023-01-10T03:54:14;99136.69;;;11.06;57.70
26859;BME280;14429;48.346;16.338;2023-01-10T03:56:44;99140.56;;;11.13;57.15
26859;BME280;14429;48.346;16.338;2023-01-10T03:59:10;99131.81;;;11.44;55.85
26859;BME280;14429;48.346;16.338;2023-01-10T04:01:35;99139.06;;;11.63;55.29
26859;BME280;14429;48.346;16.338;2023-01-10T04:04:01;99149.25;;;11.69;54.86
26859;BME280;14429;48.346;16.338;2023-01-10T04:06:28;99147.88;;;11.75;54.23
26859;BME280;14429;48.346;16.338;2023-01-10T04:08:53;99159.94;;;11.37;55.26
26859;BME280;14429;48.346;16.338;2023-01-10T04:11:20;99161.66;;;11.16;56.07
26859;BME280;14429;48.346;16.338;2023-01-10T04:13:45;99167.94;;;11.37;55.06
26859;BME280;14429;48.346;16.338;2023-01-10T04:16:11;99174.75;;;11.52;55.07
26859;BME280;14429;48.346;16.338;2023-01-10T04:18:36;99178.88;;;11.34;55.88
26859;BME280;14429;48.346;16.338;2023-01-10T04:21:01;99176.19;;;11.34;55.58
26859;BME280;14429;48.346;16.338;2023-01-10T04:23:28;99177.28;;;11.64;54.99
26859;BME280;14429;48.346;16.338;2023-01-10T04:25:54;99175.66;;;11.72;54.58
26859;BME280;14429;48.346;16.338;2023-01-10T04:28:19;99176.63;;;11.82;54.36
26859;BME280;14429;48.346;16.338;2023-01-10T04:30:44;99182.84;;;11.61;55.14
26859;BME280;14429;48.346;16.338;2023-01-10T04:33:10;99192.94;;;11.36;55.50
26859;BME280;14429;48.346;16.338;2023-01-10T04:35:35;99200.13;;;11.25;56.50
26859;BME280;14429;48.346;16.338;2023-01-10T04:38:01;99204.09;;;11.19;56.62
26859;BME280;14429;48.346;16.338;2023-01-10T04:40:27;99198.28;;;11.25;56.56
26859;BME280;14429;48.346;16.338;2023-01-10T04:42:53;99204.59;;;11.46;55.78
26859;BME280;14429;48.346;16.338;2023-01-10T04:45:18;99212.84;;;11.43;55.85
26859;BME280;14429;48.346;16.338;2023-01-10T04:47:48;99207.88;;;11.60;55.35
26859;BME280;14429;48.346;16.338;2023-01-10T04:50:14;99226.19;;;11.54;55.53
26859;BME280;14429;48.346;16.338;2023-01-10T04:52:40;99222.06;;;11.17;56.33
26859;BME280;14429;48.346;16.338;2023-01-10T04:55:06;99221.78;;;11.09;56.95
26859;BME280;14429;48.346;16.338;2023-01-10T04:57:32;99233.94;;;11.35;55.89
26859;BME280;14429;48.346;16.338;2023-01-10T04:59:58;99231.97;;;11.04;57.22
26859;BME280;14429;48.346;16.338;2023-01-10T05:02:23;99227.84;;;11.01;57.21
26859;BME280;14429;48.346;16.338;2023-01-10T05:04:49;99240.72;;;10.96;57.24
26859;BME280;14429;48.346;16.338;2023-01-10T05:07:14;99246.44;;;10.68;58.56
26859;BME280;14429;48.346;16.338;2023-01-10T05:09:39;99252.75;;;10.67;58.83
26859;BME280;14429;48.346;16.338;2023-01-10T05:12:05;99259.34;;;10.85;58.08
26859;BME280;14429;48.346;16.338;2023-01-10T05:14:32;99262.56;;;11.11;57.32
26859;BME280;14429;48.346;16.338;2023-01-10T05:16:57;99265.34;;;11.10;57.23
26859;BME280;14429;48.346;16.338;2023-01-10T05:19:22;99270.00;;;11.40;56.23
26859;BME280;14429;48.346;16.338;2023-01-10T05:21:48;99267.91;;;11.33;56.39
26859;BME280;14429;48.346;16.338;2023-01-10T05:24:13;99266.50;;;11.51;55.85
26859;BME280;14429;48.346;16.338;2023-01-10T05:26:39;99269.88;;;11.53;55.63
26859;BME280;14429;48.346;16.338;2023-01-10T05:29:04;99273.63;;;11.50;55.91
26859;BME280;14429;48.346;16.338;2023-01-10T05:31:31;99281.34;;;11.31;56.48
26859;BME280;14429;48.346;16.338;2023-01-10T05:33:56;99289.25;;;11.22;56.87
26859;BME280;14429;48.346;16.338;2023-01-10T05:36:22;99287.22;;;11.36;56.23
26859;BME280;14429;48.346;16.338;2023-01-10T05:38:47;99293.50;;;11.14;56.93
26859;BME280;14429;48.346;16.338;2023-01-10T05:41:12;99297.97;;;11.13;56.87
26859;BME280;14429;48.346;16.338;2023-01-10T05:43:38;99298.09;;;11.23;56.79
26859;BME280;14429;48.346;16.338;2023-01-10T05:46:03;99299.78;;;11.24;56.82
26859;BME280;14429;48.346;16.338;2023-01-10T05:48:30;99304.31;;;10.89;57.46
26859;BME280;14429;48.346;16.338;2023-01-10T05:50:56;99304.63;;;11.19;57.09
26859;BME280;14429;48.346;16.338;2023-01-10T05:53:21;99303.78;;;11.18;56.96
26859;BME280;14429;48.346;16.338;2023-01-10T05:55:52;99312.75;;;11.28;56.04
26859;BME280;14429;48.346;16.338;2023-01-10T05:58:17;99316.31;;;11.29;56.45
26859;BME280;14429;48.346;16.338;2023-01-10T06:00:43;99312.31;;;11.34;56.50
26859;BME280;14429;48.346;16.338;2023-01-10T06:03:08;99323.94;;;11.22;56.60
26859;BME280;14429;48.346;16.338;2023-01-10T06:05:35;99316.75;;;11.12;57.01
26859;BME280;14429;48.346;16.338;2023-01-10T06:08:00;99320.00;;;11.04;56.54
26859;BME280;14429;48.346;16.338;2023-01-10T06:10:26;99330.38;;;11.30;56.57
26859;BME280;14429;48.346;16.338;2023-01-10T06:12:51;99338.66;;;10.94;57.50
26859;BME280;14429;48.346;16.338;2023-01-10T06:15:17;99340.19;;;10.51;58.64
26859;BME280;14429;48.346;16.338;2023-01-10T06:17:42;99344.50;;;10.76;58.16
26859;BME280;14429;48.346;16.338;2023-01-10T06:20:09;99344.16;;;10.69;58.07
26859;BME280;14429;48.346;16.338;2023-01-10T06:22:35;99356.94;;;10.87;57.91
26859;BME280;14429;48.346;16.338;2023-01-10T06:25:01;99362.00;;;11.24;56.82
26859;BME280;14429;48.346;16.338;2023-01-10T06:27:26;99366.75;;;11.31;56.64
26859;BME280;14429;48.346;16.338;2023-01-10T06:29:52;99373.19;;;11.29;56.20
26859;BME280;14429;48.346;16.338;2023-01-10T06:32:17;99370.34;;;11.43;56.05
26859;BME280;14429;48.346;16.338;2023-01-10T06:34:42;99375.47;;;11.57;55.73
26859;BME280;14429;48.346;16.338;2023-01-10T06:37:08;99387.84;;;11.57;55.68
26859;BME280;14429;48.346;16.338;2023-01-10T06:39:35;99387.13;;;11.56;55.47
26859;BME280;14429;48.346;16.338;2023-01-10T06:42:00;99397.78;;;11.56;55.60
26859;BME280;14429;48.346;16.338;2023-01-10T06:44:25;99398.91;;;11.64;55.32
26859;BME280;14429;48.346;16.338;2023-01-10T06:46:51;99416.34;;;11.57;55.57
26859;BME280;14429;48.346;16.338;2023-01-10T06:49:16;99417.94;;;11.59;55.36
26859;BME280;14429;48.346;16.338;2023-01-10T06:51:42;99418.44;;;11.64;55.39
26859;BME280;14429;48.346;16.338;2023-01-10T06:54:07;99420.81;;;11.46;55.85
26859;BME280;14429;48.346;16.338;2023-01-10T06:56:34;99423.66;;;11.55;55.63
26859;BME280;14429;48.346;16.338;2023-01-10T06:58:59;99436.34;;;11.18;56.09
26859;BME280;14429;48.346;16.338;2023-01-10T07:01:25;99441.13;;;11.25;56.53
26859;BME280;14429;48.346;16.338;2023-01-10T07:03:50;99453.34;;;11.28;56.31
26859;BME280;14429;48.346;16.338;2023-01-10T07:06:15;99451.53;;;11.17;56.54
26859;BME280;14429;48.346;16.338;2023-01-10T07:08:43;99461.59;;;11.02;57.46
26859;BME280;14429;48.346;16.338;2023-01-10T07:11:09;99460.91;;;11.33;56.15
26859;BME280;14429;48.346;16.338;2023-01-10T07:13:35;99468.47;;;11.16;56.86
26859;BME280;14429;48.346;16.338;2023-01-10T07:16:02;99484.00;;;10.88;57.27
26859;BME280;14429;48.346;16.338;2023-01-10T07:18:27;99479.72;;;11.09;57.25
26859;BME280;14429;48.346;16.338;2023-01-10T07:20:52;99474.63;;;11.29;56.59
26859;BME280;14429;48.346;16.338;2023-01-10T07:23:18;99478.16;;;11.06;56.85
26859;BME280;14429;48.346;16.338;2023-01-10T07:25:43;99491.44;;;11.42;55.98
26859;BME280;14429;48.346;16.338;2023-01-10T07:28:09;99494.22;;;11.40;56.03
26859;BME280;14429;48.346;16.338;2023-01-10T07:30:35;99508.59;;;10.69;58.31
26859;BME280;14429;48.346;16.338;2023-01-10T07:33:01;99512.97;;;10.93;57.35
26859;BME280;14429;48.346;16.338;2023-01-10T07:35:26;99503.69;;;11.21;56.41
26859;BME280;14429;48.346;16.338;2023-01-10T07:37:52;99516.69;;;11.03;57.28
26859;BME280;14429;48.346;16.338;2023-01-10T07:40:17;99515.22;;;11.22;56.74
26859;BME280;14429;48.346;16.338;2023-01-10T07:42:42;99518.38;;;11.27;56.43
26859;BME280;14429;48.346;16.338;2023-01-10T07:45:09;99515.31;;;10.97;56.63
26859;BME280;14429;48.346;16.338;2023-01-10T07:47:35;99521.63;;;11.19;56.82
26859;BME280;14429;48.346;16.338;2023-01-10T07:50:01;99536.84;;;10.94;57.38
26859;BME280;14429;48.346;16.338;2023-01-10T07:52:26;99530.59;;;11.18;56.79
26859;BME280;14429;48.346;16.338;2023-01-10T07:54:52;99532.38;;;10.95;57.48
26859;BME280;14429;48.346;16.338;2023-01-10T07:57:17;99529.69;;;11.30;56.34
26859;BME280;14429;48.346;16.338;2023-01-10T07:59:43;99542.25;;;11.05;55.75
26859;BME280;14429;48.346;16.338;2023-01-10T08:02:09;99541.97;;;10.49;57.80
26859;BME280;14429;48.346;16.338;2023-01-10T08:04:36;99552.09;;;10.69;58.14
26859;BME280;14429;48.346;16.338;2023-01-10T08:07:01;99555.59;;;11.17;56.81
26859;BME280;14429;48.346;16.338;2023-01-10T08:09:27;99571.13;;;11.23;56.67
26859;BME280;14429;48.346;16.338;2023-01-10T08:11:52;99574.19;;;11.06;56.79
26859;BME280;14429;48.346;16.338;2023-01-10T08:14:18;99581.94;;;11.09;56.70
26859;BME280;14429;48.346;16.338;2023-01-10T08:16:43;99593.16;;;11.14;56.94
26859;BME280;14429;48.346;16.338;2023-01-10T08:19:08;99587.81;;;11.14;56.68
26859;BME280;14429;48.346;16.338;2023-01-10T08:21:35;99591.13;;;11.18;56.85
26859;BME280;14429;48.346;16.338;2023-01-10T08:24:00;99602.34;;;10.98;56.90
26859;BME280;14429;48.346;16.338;2023-01-10T08:26:26;99614.38;;;11.16;56.89
26859;BME280;14429;48.346;16.338;2023-01-10T08:28:51;99615.59;;;11.00;56.73
26859;BME280;14429;48.346;16.338;2023-01-10T08:31:17;99621.53;;;11.15;56.81
26859;BME280;14429;48.346;16.338;2023-01-10T08:33:42;99627.09;;;11.12;56.74
26859;BME280;14429;48.346;16.338;2023-01-10T08:36:14;99627.47;;;10.96;57.23
26859;BME280;14429;48.346;16.338;2023-01-10T08:38:41;99624.91;;;11.30;56.57
26859;BME280;14429;48.346;16.338;2023-01-10T08:41:06;99625.41;;;10.87;56.65
26859;BME280;14429;48.346;16.338;2023-01-10T08:43:31;99644.81;;;11.13;57.00
26859;BME280;14429;48.346;16.338;2023-01-10T08:45:57;99636.09;;;10.87;57.67
26859;BME280;14429;48.346;16.338;2023-01-10T08:48:22;99654.41;;;11.16;56.86
26859;BME280;14429;48.346;16.338;2023-01-10T08:50:48;99654.38;;;11.28;56.51
26859;BME280;14429;48.346;16.338;2023-01-10T08:53:13;99657.38;;;11.24;56.32
26859;BME280;14429;48.346;16.338;2023-01-10T08:55:40;99668.41;;;10.95;56.57
26859;BME280;14429;48.346;16.338;2023-01-10T08:58:05;99670.88;;;10.98;57.09
26859;BME280;14429;48.346;16.338;2023-01-10T09:00:31;99676.03;;;11.36;56.27
26859;BME280;14429;48.346;16.338;2023-01-10T09:02:56;99677.88;;;11.23;56.34
26859;BME280;14429;48.346;16.338;2023-01-10T09:05:22;99684.91;;;11.24;57.01
26859;BME280;14429;48.346;16.338;2023-01-10T09:07:47;99688.44;;;11.25;57.00
26859;BME280;14429;48.346;16.338;2023-01-10T09:10:13;99699.31;;;11.34;57.01
26859;BME280;14429;48.346;16.338;2023-01-10T09:12:40;99708.50;;;11.30;57.33
26859;BME280;14429;48.346;16.338;2023-01-10T09:15:06;99715.56;;;11.19;57.48
26859;BME280;14429;48.346;16.338;2023-01-10T09:17:32;99718.88;;;11.22;56.87
26859;BME280;14429;48.346;16.338;2023-01-10T09:19:57;99708.63;;;11.16;56.85
26859;BME280;14429;48.346;16.338;2023-01-10T09:22:23;99720.34;;;11.26;56.58
26859;BME280;14429;48.346;16.338;2023-01-10T09:24:48;99716.28;;;11.21;56.02
26859;BME280;14429;48.346;16.338;2023-01-10T09:27:14;99713.41;;;11.48;55.01
26859;BME280;14429;48.346;16.338;2023-01-10T09:29:40;99719.91;;;11.57;54.49
26859;BME280;14429;48.346;16.338;2023-01-10T09:32:06;99723.06;;;11.61;54.09
26859;BME280;14429;48.346;16.338;2023-01-10T09:34:31;99729.53;;;11.47;54.47
26859;BME280;14429;48.346;16.338;2023-01-10T09:36:57;99737.31;;;11.37;54.82
26859;BME280;14429;48.346;16.338;2023-01-10T09:39:22;99736.47;;;11.37;55.38
26859;BME280;14429;48.346;16.338;2023-01-10T09:41:57;99749.81;;;11.12;56.14
26859;BME280;14429;48.346;16.338;2023-01-10T09:44:37;99735.31;;;11.16;56.39
26859;BME280;14429;48.346;16.338;2023-01-10T09:47:12;99749.19;;;11.09;56.72
26859;BME280;14429;48.346;16.338;2023-01-10T09:49:47;99756.97;;;11.49;55.08
26859;BME280;14429;48.346;16.338;2023-01-10T09:52:20;99758.59;;;11.51;54.62
26859;BME280;14429;48.346;16.338;2023-01-10T09:54:47;99746.16;;;11.62;54.04
26859;BME280;14429;48.346;16.338;2023-01-10T09:57:17;99756.88;;;11.38;54.70
26859;BME280;14429;48.346;16.338;2023-01-10T09:59:43;99753.88;;;11.55;54.04
26859;BME280;14429;48.346;16.338;2023-01-10T10:02:22;99750.09;;;11.69;53.51
26859;BME280;14429;48.346;16.338;2023-01-10T10:04:58;99754.81;;;11.54;54.08
26859;BME280;14429;48.346;16.338;2023-01-10T10:07:25;99758.50;;;11.40;54.75
26859;BME280;14429;48.346;16.338;2023-01-10T10:09:50;99764.66;;;11.16;55.63
26859;BME280;14429;48.346;16.338;2023-01-10T10:12:26;99767.34;;;11.41;55.53
26859;BME280;14429;48.346;16.338;2023-01-10T10:15:05;99765.41;;;11.43;55.16
26859;BME280;14429;48.346;16.338;2023-01-10T10:17:42;99772.88;;;11.62;54.13
26859;BME280;14429;48.346;16.338;2023-01-10T10:20:23;99771.38;;;11.58;54.16
26859;BME280;14429;48.346;16.338;2023-01-10T10:23:00;99776.94;;;11.56;53.87
26859;BME280;14429;48.346;16.338;2023-01-10T10:25:43;99777.13;;;11.77;53.04
26859;BME280;14429;48.346;16.338;2023-01-10T10:31:09;99789.53;;;11.54;54.09
26859;BME280;14429;48.346;16.338;2023-01-10T10:33:50;99792.00;;;11.57;54.34
26859;BME280;14429;48.346;16.338;2023-01-10T10:36:22;99786.84;;;11.54;54.65
26859;BME280;14429;48.346;16.338;2023-01-10T10:38:49;99796.69;;;11.53;54.99
26859;BME280;14429;48.346;16.338;2023-01-10T10:41:27;99789.97;;;11.48;54.57
26859;BME280;14429;48.346;16.338;2023-01-10T10:43:57;99789.19;;;11.70;53.74
26859;BME280;14429;48.346;16.338;2023-01-10T10:46:23;99787.72;;;11.66;53.62
26859;BME280;14429;48.346;16.338;2023-01-10T10:48:55;99794.00;;;11.65;53.41
26859;BME280;14429;48.346;16.338;2023-01-10T10:51:25;99794.16;;;11.87;52.42
26859;BME280;14429;48.346;16.338;2023-01-10T10:53:53;99798.03;;;11.83;52.61
26859;BME280;14429;48.346;16.338;2023-01-10T10:56:21;99803.19;;;11.74;53.15
26859;BME280;14429;48.346;16.338;2023-01-10T10:58:50;99794.22;;;11.62;53.84
26859;BME280;14429;48.346;16.338;2023-01-10T11:01:17;99793.47;;;11.60;54.34
26859;BME280;14429;48.346;16.338;2023-01-10T11:03:46;99798.09;;;11.58;54.62
26859;BME280;14429;48.346;16.338;2023-01-10T11:06:15;99801.50;;;11.60;54.38
26859;BME280;14429;48.346;16.338;2023-01-10T11:08:44;99803.53;;;11.45;54.39
26859;BME280;14429;48.346;16.338;2023-01-10T11:11:17;99795.94;;;11.63;53.74
26859;BME280;14429;48.346;16.338;2023-01-10T11:13:47;99800.84;;;11.69;53.30
26859;BME280;14429;48.346;16.338;2023-01-10T11:16:29;99807.69;;;11.61;53.42
26859;BME280;14429;48.346;16.338;2023-01-10T11:19:13;99804.63;;;11.90;52.33
26859;BME280;14429;48.346;16.338;2023-01-10T11:21:40;99810.88;;;11.78;52.79
26859;BME280;14429;48.346;16.338;2023-01-10T11:24:20;99817.94;;;11.30;54.78
26859;BME280;14429;48.346;16.338;2023-01-10T11:26:46;99826.16;;;11.39;54.95
26859;BME280;14429;48.346;16.338;2023-01-10T11:29:15;99832.00;;;11.07;55.62
26859;BME280;14429;48.346;16.338;2023-01-10T11:31:41;99822.41;;;11.30;54.89
26859;BME280;14429;48.346;16.338;2023-01-10T11:34:18;99825.72;;;11.33;54.83
26859;BME280;14429;48.346;16.338;2023-01-10T11:36:57;99823.25;;;11.30;54.35
26859;BME280;14429;48.346;16.338;2023-01-10T11:39:23;99829.06;;;11.49;54.08
26859;BME280;14429;48.346;16.338;2023-01-10T11:41:49;99833.19;;;11.65;53.27
26859;BME280;14429;48.346;16.338;2023-01-10T11:44:15;99830.75;;;11.50;53.34
26859;BME280;14429;48.346;16.338;2023-01-10T11:46:42;99830.53;;;11.77;52.84
26859;BME280;14429;48.346;16.338;2023-01-10T11:49:11;99827.56;;;11.57;52.72
26859;BME280;14429;48.346;16.338;2023-01-10T11:51:42;99833.53;;;11.60;53.78
26859;BME280;14429;48.346;16.338;2023-01-10T11:54:13;99829.06;;;11.49;54.32
26859;BME280;14429;48.346;16.338;2023-01-10T11:56:40;99835.88;;;11.65;54.44
26859;BME280;14429;48.346;16.338;2023-01-10T11:59:08;99838.44;;;11.54;53.77
26859;BME280;14429;48.346;16.338;2023-01-10T12:01:39;99838.44;;;11.66;53.80
26859;BME280;14429;48.346;16.338;2023-01-10T12:04:05;99841.63;;;11.71;53.20
26859;BME280;14429;48.346;16.338;2023-01-10T12:06:32;99846.13;;;11.71;53.10
26859;BME280;14429;48.346;16.338;2023-01-10T12:08:58;99840.06;;;11.57;52.72
26859;BME280;14429;48.346;16.338;2023-01-10T12:11:28;99839.31;;;11.67;52.57
26859;BME280;14429;48.346;16.338;2023-01-10T12:13:56;99850.16;;;11.76;52.57
26859;BME280;14429;48.346;16.338;2023-01-10T12:16:23;99852.41;;;11.33;53.79
26859;BME280;14429;48.346;16.338;2023-01-10T12:18:49;99865.97;;;11.30;53.95
26859;BME280;14429;48.346;16.338;2023-01-10T12:21:20;99861.16;;;11.35;53.80
26859;BME280;14429;48.346;16.338;2023-01-10T12:23:48;99866.84;;;11.43;54.32
26859;BME280;14429;48.346;16.338;2023-01-10T12:26:15;99870.06;;;11.48;54.40
26859;BME280;14429;48.346;16.338;2023-01-10T12:28:46;99854.28;;;11.69;53.36
26859;BME280;14429;48.346;16.338;2023-01-10T12:31:13;99853.84;;;11.51;53.50
26859;BME280;14429;48.346;16.338;2023-01-10T12:33:42;99860.66;;;11.67;52.76
26859;BME280;14429;48.346;16.338;2023-01-10T12:36:14;99860.22;;;11.85;52.20
26859;BME280;14429;48.346;16.338;2023-01-10T12:38:46;99865.56;;;11.60;52.34
26859;BME280;14429;48.346;16.338;2023-01-10T12:41:15;99863.44;;;11.65;51.95
26859;BME280;14429;48.346;16.338;2023-01-10T12:43:45;99875.75;;;11.43;52.86
26859;BME280;14429;48.346;16.338;2023-01-10T12:46:14;99881.28;;;11.40;53.63
26859;BME280;14429;48.346;16.338;2023-01-10T12:48:48;99879.56;;;11.39;53.87
26859;BME280;14429;48.346;16.338;2023-01-10T12:51:20;99898.06;;;11.55;54.03
26859;BME280;14429;48.346;16.338;2023-01-10T12:53:49;99891.84;;;11.42;53.06
26859;BME280;14429;48.346;16.338;2023-01-10T12:56:17;99896.34;;;11.54;52.84
26859;BME280;14429;48.346;16.338;2023-01-10T12:58:45;99886.75;;;11.51;52.85
26859;BME280;14429;48.346;16.338;2023-01-10T13:01:14;99882.47;;;11.49;53.22